GTI4436 KSAN-KPDX
Flight info
| Callsign | GTI4436 |
|---|---|
| Flight time | 2h 0m |
| Altitude | 38000 |
| Route | PADRZ2 EHF DNOLD GALLO TMBRS4 |
| Aircraft | B77L/H-SDE1E2E3FGHIJ2J3J4J5M1RWXY/LB1D1 |
Departure
| Time | 2026-04-22 01:41 |
|---|---|
| Airport | San Diego International Airport (KSAN) |
Arrival
| Time | 2026-04-22 03:41 |
|---|---|
| Airport | Portland International Airport (KPDX) |
| Time | Latitude | Longitude | Altitude | Speed | Heading |
|---|---|---|---|---|---|
| 2026-04-22 01:18 | 32.73518 | -117.18366 | 35 ft | 0 kts | 52° |
| 2026-04-22 01:32 | 32.73517 | -117.18368 | 29 ft | 2 kts | 52° |
| 2026-04-22 01:33 | 32.73508 | -117.18384 | 32 ft | 2 kts | 61° |
| 2026-04-22 01:33 | 32.73501 | -117.18401 | 35 ft | 2 kts | 76° |
| 2026-04-22 01:33 | 32.73499 | -117.18421 | 35 ft | 2 kts | 102° |
| 2026-04-22 01:33 | 32.73505 | -117.18439 | 34 ft | 2 kts | 129° |
| 2026-04-22 01:34 | 32.73515 | -117.18451 | 34 ft | 1 kts | 142° |
| 2026-04-22 01:34 | 32.73518 | -117.18454 | 34 ft | 0 kts | 143° |
| 2026-04-22 01:35 | 32.73518 | -117.18453 | 34 ft | 0 kts | 143° |
| 2026-04-22 01:35 | 32.73516 | -117.18452 | 34 ft | 0 kts | 143° |
| 2026-04-22 01:35 | 32.73514 | -117.18450 | 34 ft | 0 kts | 143° |
| 2026-04-22 01:35 | 32.73510 | -117.18447 | 34 ft | 2 kts | 143° |
| 2026-04-22 01:36 | 32.73494 | -117.18432 | 35 ft | 3 kts | 143° |
| 2026-04-22 01:36 | 32.73475 | -117.18416 | 33 ft | 4 kts | 143° |
| 2026-04-22 01:36 | 32.73444 | -117.18393 | 32 ft | 6 kts | 156° |
| 2026-04-22 01:36 | 32.73402 | -117.18393 | 31 ft | 6 kts | 195° |
| 2026-04-22 01:37 | 32.73361 | -117.18403 | 34 ft | 6 kts | 179° |
| 2026-04-22 01:37 | 32.73329 | -117.18371 | 32 ft | 7 kts | 113° |
| 2026-04-22 01:37 | 32.73311 | -117.18305 | 31 ft | 11 kts | 108° |
| 2026-04-22 01:37 | 32.73285 | -117.18200 | 33 ft | 14 kts | 106° |
| 2026-04-22 01:38 | 32.73258 | -117.18089 | 30 ft | 14 kts | 106° |
| 2026-04-22 01:38 | 32.73230 | -117.17972 | 29 ft | 15 kts | 106° |
| 2026-04-22 01:38 | 32.73200 | -117.17848 | 28 ft | 16 kts | 106° |
| 2026-04-22 01:38 | 32.73170 | -117.17724 | 31 ft | 16 kts | 106° |
| 2026-04-22 01:39 | 32.73140 | -117.17605 | 30 ft | 13 kts | 110° |
| 2026-04-22 01:39 | 32.73108 | -117.17560 | 29 ft | 4 kts | 143° |
| 2026-04-22 01:39 | 32.73077 | -117.17535 | 31 ft | 11 kts | 150° |
| 2026-04-22 01:39 | 32.73019 | -117.17545 | 31 ft | 6 kts | 249° |
| 2026-04-22 01:40 | 32.73022 | -117.17579 | 32 ft | 0 kts | 283° |
| 2026-04-22 01:40 | 32.73089 | -117.17862 | 28 ft | 78 kts | 286° |
| 2026-04-22 01:40 | 32.73306 | -117.18773 | 30 ft | 147 kts | 285° |
| 2026-04-22 01:40 | 32.73609 | -117.19978 | 604 ft | 156 kts | 286° |
| 2026-04-22 01:41 | 32.73914 | -117.21269 | 1203 ft | 166 kts | 288° |
| 2026-04-22 01:41 | 32.74550 | -117.22489 | 1675 ft | 186 kts | 304° |
| 2026-04-22 01:41 | 32.75351 | -117.23846 | 1962 ft | 217 kts | 302° |
| 2026-04-22 01:41 | 32.76241 | -117.25389 | 2622 ft | 233 kts | 302° |
| 2026-04-22 01:42 | 32.77179 | -117.27019 | 3502 ft | 244 kts | 302° |
| 2026-04-22 01:42 | 32.78152 | -117.28715 | 4423 ft | 252 kts | 302° |
| 2026-04-22 01:42 | 32.79150 | -117.30459 | 5440 ft | 258 kts | 301° |
| 2026-04-22 01:42 | 32.80178 | -117.32226 | 6376 ft | 261 kts | 302° |
| 2026-04-22 01:43 | 32.81281 | -117.33964 | 6917 ft | 266 kts | 303° |
| 2026-04-22 01:43 | 32.82428 | -117.35723 | 6989 ft | 272 kts | 303° |
| 2026-04-22 01:43 | 32.83588 | -117.37500 | 6995 ft | 271 kts | 303° |
| 2026-04-22 01:43 | 32.84735 | -117.39260 | 6986 ft | 268 kts | 303° |
| 2026-04-22 01:44 | 32.85865 | -117.41002 | 6982 ft | 265 kts | 303° |
| 2026-04-22 01:44 | 32.86992 | -117.42746 | 7010 ft | 266 kts | 303° |
| 2026-04-22 01:44 | 32.88119 | -117.44493 | 7601 ft | 267 kts | 303° |
| 2026-04-22 01:44 | 32.89256 | -117.46258 | 8569 ft | 271 kts | 302° |
| 2026-04-22 01:45 | 32.90407 | -117.48046 | 9591 ft | 274 kts | 302° |
| 2026-04-22 01:45 | 32.91571 | -117.49859 | 10492 ft | 280 kts | 302° |
| 2026-04-22 01:45 | 32.92804 | -117.51787 | 10863 ft | 307 kts | 302° |
| 2026-04-22 01:45 | 32.94144 | -117.53886 | 11113 ft | 336 kts | 303° |
| 2026-04-22 01:46 | 32.95593 | -117.56145 | 11858 ft | 348 kts | 303° |
| 2026-04-22 01:46 | 32.97077 | -117.58453 | 12834 ft | 354 kts | 303° |
| 2026-04-22 01:46 | 32.98578 | -117.60787 | 13923 ft | 357 kts | 303° |
| 2026-04-22 01:46 | 33.00096 | -117.63152 | 14875 ft | 361 kts | 302° |
| 2026-04-22 01:47 | 33.01624 | -117.65536 | 15883 ft | 363 kts | 302° |
| 2026-04-22 01:47 | 33.03164 | -117.67941 | 16865 ft | 367 kts | 302° |
| 2026-04-22 01:47 | 33.04717 | -117.70373 | 17802 ft | 371 kts | 302° |
| 2026-04-22 01:47 | 33.06302 | -117.72826 | 18667 ft | 377 kts | 304° |
| 2026-04-22 01:48 | 33.08159 | -117.75086 | 19430 ft | 387 kts | 312° |
| 2026-04-22 01:48 | 33.10246 | -117.77156 | 20227 ft | 393 kts | 315° |
| 2026-04-22 01:48 | 33.12397 | -117.79199 | 21051 ft | 396 kts | 315° |
| 2026-04-22 01:48 | 33.14544 | -117.81282 | 21852 ft | 399 kts | 314° |
| 2026-04-22 01:49 | 33.16682 | -117.83425 | 22627 ft | 403 kts | 313° |
| 2026-04-22 01:49 | 33.18830 | -117.85614 | 23397 ft | 408 kts | 313° |
| 2026-04-22 01:49 | 33.21008 | -117.87811 | 24119 ft | 412 kts | 313° |
| 2026-04-22 01:49 | 33.23231 | -117.89991 | 24795 ft | 415 kts | 313° |
| 2026-04-22 01:50 | 33.25481 | -117.92175 | 25467 ft | 419 kts | 313° |
| 2026-04-22 01:50 | 33.27756 | -117.94380 | 26095 ft | 422 kts | 313° |
| 2026-04-22 01:50 | 33.30047 | -117.96607 | 26720 ft | 426 kts | 313° |
| 2026-04-22 01:50 | 33.32360 | -117.98860 | 27340 ft | 430 kts | 312° |
| 2026-04-22 01:51 | 33.34685 | -118.01131 | 27968 ft | 434 kts | 312° |
| 2026-04-22 01:51 | 33.37030 | -118.03425 | 28584 ft | 437 kts | 312° |
| 2026-04-22 01:51 | 33.39394 | -118.05740 | 29223 ft | 441 kts | 311° |
| 2026-04-22 01:51 | 33.41750 | -118.08051 | 29825 ft | 444 kts | 311° |
| 2026-04-22 01:52 | 33.44148 | -118.10402 | 30400 ft | 446 kts | 311° |
| 2026-04-22 01:52 | 33.46556 | -118.12765 | 30876 ft | 449 kts | 311° |
| 2026-04-22 01:52 | 33.48979 | -118.15145 | 31300 ft | 452 kts | 311° |
| 2026-04-22 01:52 | 33.51414 | -118.17537 | 31805 ft | 452 kts | 311° |
| 2026-04-22 01:53 | 33.53842 | -118.19922 | 32419 ft | 450 kts | 311° |
| 2026-04-22 01:53 | 33.56252 | -118.22291 | 33052 ft | 447 kts | 311° |
| 2026-04-22 01:53 | 33.58788 | -118.24498 | 33646 ft | 458 kts | 320° |
| 2026-04-22 01:53 | 33.61699 | -118.26179 | 34136 ft | 468 kts | 327° |
| 2026-04-22 01:54 | 33.64701 | -118.27692 | 34576 ft | 468 kts | 327° |
| 2026-04-22 01:54 | 33.67689 | -118.29216 | 35044 ft | 465 kts | 326° |
| 2026-04-22 01:54 | 33.70636 | -118.30785 | 35516 ft | 462 kts | 325° |
| 2026-04-22 01:54 | 33.73549 | -118.32388 | 35989 ft | 459 kts | 325° |
| 2026-04-22 01:55 | 33.76441 | -118.33994 | 36437 ft | 457 kts | 325° |
| 2026-04-22 01:55 | 33.79358 | -118.35534 | 36906 ft | 458 kts | 327° |
| 2026-04-22 01:55 | 33.82309 | -118.37008 | 37263 ft | 459 kts | 327° |
| 2026-04-22 01:55 | 33.85257 | -118.38458 | 37750 ft | 457 kts | 327° |
| 2026-04-22 01:56 | 33.88192 | -118.39910 | 38152 ft | 456 kts | 327° |
| 2026-04-22 01:56 | 33.91140 | -118.41391 | 38095 ft | 461 kts | 327° |
| 2026-04-22 01:56 | 33.97035 | -118.44371 | 38113 ft | 456 kts | 327° |
| 2026-04-22 01:57 | 34.03109 | -118.46754 | 38126 ft | 473 kts | 341° |
| 2026-04-22 01:57 | 34.09708 | -118.47690 | 38107 ft | 478 kts | 344° |
| 2026-04-22 01:58 | 34.16334 | -118.48519 | 38092 ft | 479 kts | 344° |
| 2026-04-22 01:58 | 34.22911 | -118.49455 | 38115 ft | 479 kts | 343° |
| 2026-04-22 01:59 | 34.29538 | -118.50473 | 38117 ft | 480 kts | 343° |
| 2026-04-22 01:59 | 34.36170 | -118.51506 | 38108 ft | 481 kts | 343° |
| 2026-04-22 02:00 | 34.42814 | -118.52536 | 38143 ft | 482 kts | 343° |
| 2026-04-22 02:00 | 34.49477 | -118.53569 | 38083 ft | 483 kts | 343° |
| 2026-04-22 02:01 | 34.56148 | -118.54602 | 38083 ft | 483 kts | 343° |
| 2026-04-22 02:01 | 34.61704 | -118.55464 | 38062 ft | 484 kts | 343° |
| 2026-04-22 02:02 | 34.68389 | -118.56503 | 38072 ft | 484 kts | 344° |
| 2026-04-22 02:02 | 34.75069 | -118.57544 | 38070 ft | 483 kts | 344° |
| 2026-04-22 02:03 | 34.81733 | -118.58582 | 38061 ft | 483 kts | 344° |
| 2026-04-22 02:03 | 34.88389 | -118.59623 | 38071 ft | 482 kts | 344° |
| 2026-04-22 02:04 | 34.98361 | -118.61194 | 38083 ft | 478 kts | 341° |
| 2026-04-22 02:04 | 35.01493 | -118.62269 | 38082 ft | 457 kts | 326° |
| 2026-04-22 02:05 | 35.04088 | -118.64226 | 38081 ft | 434 kts | 310° |
| 2026-04-22 02:05 | 35.08657 | -118.69120 | 38118 ft | 444 kts | 311° |
| 2026-04-22 02:06 | 35.13414 | -118.73973 | 38083 ft | 445 kts | 312° |
| 2026-04-22 02:06 | 35.18190 | -118.78792 | 38050 ft | 444 kts | 312° |
| 2026-04-22 02:07 | 35.22942 | -118.83605 | 38069 ft | 442 kts | 312° |
| 2026-04-22 02:07 | 35.27666 | -118.88410 | 38065 ft | 441 kts | 313° |
| 2026-04-22 02:08 | 35.32386 | -118.93220 | 38058 ft | 440 kts | 312° |
| 2026-04-22 02:08 | 35.37085 | -118.98016 | 38066 ft | 439 kts | 313° |
| 2026-04-22 02:09 | 35.41765 | -119.02800 | 38051 ft | 437 kts | 313° |
| 2026-04-22 02:09 | 35.46407 | -119.07551 | 38061 ft | 437 kts | 313° |
| 2026-04-22 02:10 | 35.51805 | -119.11177 | 38072 ft | 457 kts | 335° |
| 2026-04-22 02:10 | 35.57918 | -119.13367 | 38070 ft | 459 kts | 335° |
| 2026-04-22 02:11 | 35.64061 | -119.15618 | 38093 ft | 462 kts | 334° |
| 2026-04-22 02:11 | 35.70225 | -119.17936 | 38084 ft | 463 kts | 334° |
| 2026-04-22 02:12 | 35.76396 | -119.20284 | 38076 ft | 465 kts | 334° |
| 2026-04-22 02:12 | 35.82575 | -119.22642 | 38117 ft | 465 kts | 334° |
| 2026-04-22 02:13 | 35.88762 | -119.25005 | 38083 ft | 464 kts | 334° |
| 2026-04-22 02:13 | 35.94919 | -119.27360 | 38079 ft | 462 kts | 334° |
| 2026-04-22 02:14 | 36.01009 | -119.29691 | 38122 ft | 460 kts | 334° |
| 2026-04-22 02:14 | 36.07111 | -119.32033 | 38089 ft | 459 kts | 334° |
| 2026-04-22 02:15 | 36.13200 | -119.34374 | 38077 ft | 457 kts | 334° |
| 2026-04-22 02:15 | 36.19272 | -119.36713 | 38082 ft | 457 kts | 334° |
| 2026-04-22 02:16 | 36.25347 | -119.39058 | 38087 ft | 457 kts | 334° |
| 2026-04-22 02:16 | 36.31429 | -119.41408 | 38086 ft | 458 kts | 334° |
| 2026-04-22 02:17 | 36.37519 | -119.43765 | 38088 ft | 459 kts | 334° |
| 2026-04-22 02:17 | 36.43622 | -119.46131 | 38093 ft | 461 kts | 333° |
| 2026-04-22 02:18 | 36.49754 | -119.48511 | 38079 ft | 461 kts | 333° |
| 2026-04-22 02:18 | 36.55887 | -119.50896 | 38074 ft | 462 kts | 333° |
| 2026-04-22 02:19 | 36.62029 | -119.53288 | 38084 ft | 464 kts | 333° |
| 2026-04-22 02:19 | 36.68151 | -119.55679 | 38066 ft | 464 kts | 334° |
| 2026-04-22 02:20 | 36.74315 | -119.58086 | 38074 ft | 464 kts | 334° |
| 2026-04-22 02:20 | 36.80475 | -119.60496 | 38074 ft | 464 kts | 334° |
| 2026-04-22 02:21 | 36.86634 | -119.62910 | 38070 ft | 464 kts | 334° |
| 2026-04-22 02:21 | 36.92793 | -119.65329 | 38075 ft | 463 kts | 334° |
| 2026-04-22 02:22 | 36.98942 | -119.67749 | 38132 ft | 464 kts | 333° |
| 2026-04-22 02:22 | 37.05130 | -119.70190 | 38082 ft | 466 kts | 333° |
| 2026-04-22 02:23 | 37.11296 | -119.72626 | 38062 ft | 467 kts | 333° |
| 2026-04-22 02:23 | 37.17504 | -119.75080 | 38107 ft | 468 kts | 334° |
| 2026-04-22 02:24 | 37.23741 | -119.77552 | 38079 ft | 471 kts | 334° |
| 2026-04-22 02:24 | 37.29997 | -119.80035 | 38068 ft | 472 kts | 334° |
| 2026-04-22 02:25 | 37.36274 | -119.82529 | 38083 ft | 473 kts | 335° |
| 2026-04-22 02:25 | 37.42562 | -119.85029 | 38077 ft | 474 kts | 334° |
| 2026-04-22 02:26 | 37.48854 | -119.87541 | 38075 ft | 474 kts | 334° |
| 2026-04-22 02:26 | 37.55144 | -119.90056 | 38099 ft | 474 kts | 335° |
| 2026-04-22 02:27 | 37.61403 | -119.92561 | 38074 ft | 474 kts | 335° |
| 2026-04-22 02:27 | 37.67701 | -119.95088 | 38079 ft | 475 kts | 335° |
| 2026-04-22 02:28 | 37.74007 | -119.97621 | 38106 ft | 476 kts | 335° |
| 2026-04-22 02:28 | 37.80329 | -120.00167 | 38087 ft | 477 kts | 335° |
| 2026-04-22 02:29 | 37.86660 | -120.02720 | 38086 ft | 478 kts | 335° |
| 2026-04-22 02:29 | 37.92989 | -120.05275 | 38095 ft | 477 kts | 336° |
| 2026-04-22 02:30 | 37.99284 | -120.07822 | 38078 ft | 478 kts | 336° |
| 2026-04-22 02:30 | 38.05631 | -120.10397 | 38085 ft | 479 kts | 336° |
| 2026-04-22 02:31 | 38.11996 | -120.12982 | 38092 ft | 481 kts | 336° |
| 2026-04-22 02:31 | 38.18377 | -120.15579 | 38064 ft | 482 kts | 336° |
| 2026-04-22 02:32 | 38.24766 | -120.18183 | 38070 ft | 482 kts | 336° |
| 2026-04-22 02:32 | 38.31168 | -120.20798 | 38067 ft | 483 kts | 336° |
| 2026-04-22 02:33 | 38.37533 | -120.23403 | 38063 ft | 483 kts | 336° |
| 2026-04-22 02:33 | 38.43941 | -120.26029 | 38050 ft | 483 kts | 336° |
| 2026-04-22 02:34 | 38.50351 | -120.28662 | 38071 ft | 484 kts | 337° |
| 2026-04-22 02:34 | 38.56757 | -120.31298 | 38052 ft | 484 kts | 337° |
| 2026-04-22 02:35 | 38.63170 | -120.33941 | 38043 ft | 483 kts | 337° |
| 2026-04-22 02:35 | 38.69569 | -120.36585 | 38040 ft | 483 kts | 337° |
| 2026-04-22 02:36 | 38.75925 | -120.39214 | 38043 ft | 483 kts | 337° |
| 2026-04-22 02:36 | 38.82321 | -120.41862 | 38058 ft | 483 kts | 336° |
| 2026-04-22 02:37 | 38.88710 | -120.44518 | 38043 ft | 483 kts | 337° |
| 2026-04-22 02:37 | 38.95101 | -120.47180 | 38038 ft | 482 kts | 337° |
| 2026-04-22 02:38 | 39.01491 | -120.49844 | 38044 ft | 482 kts | 337° |
| 2026-04-22 02:38 | 39.07891 | -120.52519 | 38026 ft | 483 kts | 337° |
| 2026-04-22 02:39 | 39.14251 | -120.55180 | 38026 ft | 484 kts | 337° |
| 2026-04-22 02:39 | 39.20668 | -120.57871 | 38028 ft | 485 kts | 337° |
| 2026-04-22 02:40 | 39.27088 | -120.60569 | 38026 ft | 486 kts | 337° |
| 2026-04-22 02:40 | 39.33527 | -120.63279 | 38016 ft | 487 kts | 337° |
| 2026-04-22 02:41 | 39.39976 | -120.66000 | 38012 ft | 488 kts | 337° |
| 2026-04-22 02:41 | 39.46407 | -120.68717 | 38006 ft | 490 kts | 337° |
| 2026-04-22 02:42 | 39.52890 | -120.71462 | 38003 ft | 490 kts | 337° |
| 2026-04-22 02:42 | 39.59385 | -120.74218 | 38026 ft | 491 kts | 337° |
| 2026-04-22 02:43 | 39.65894 | -120.76985 | 38009 ft | 493 kts | 337° |
| 2026-04-22 02:43 | 39.72419 | -120.79765 | 38013 ft | 493 kts | 338° |
| 2026-04-22 02:44 | 39.78939 | -120.82546 | 38007 ft | 493 kts | 338° |
| 2026-04-22 02:44 | 39.85461 | -120.85335 | 38003 ft | 493 kts | 337° |
| 2026-04-22 02:45 | 39.91983 | -120.88130 | 37980 ft | 493 kts | 338° |
| 2026-04-22 02:45 | 39.98508 | -120.90932 | 37981 ft | 493 kts | 338° |
| 2026-04-22 02:46 | 40.05036 | -120.93741 | 37999 ft | 494 kts | 338° |
| 2026-04-22 02:46 | 40.11542 | -120.96546 | 37987 ft | 495 kts | 338° |
| 2026-04-22 02:47 | 40.18076 | -120.99367 | 37975 ft | 495 kts | 338° |
| 2026-04-22 02:47 | 40.24613 | -121.02198 | 37976 ft | 495 kts | 338° |
| 2026-04-22 02:48 | 40.31143 | -121.05030 | 37974 ft | 494 kts | 338° |
| 2026-04-22 02:48 | 40.37673 | -121.07869 | 37972 ft | 494 kts | 338° |
| 2026-04-22 02:49 | 40.44202 | -121.10712 | 37960 ft | 494 kts | 338° |
| 2026-04-22 02:49 | 40.49647 | -121.13009 | 37971 ft | 494 kts | 339° |
| 2026-04-22 02:50 | 40.57332 | -121.16140 | 37964 ft | 495 kts | 339° |
| 2026-04-22 02:50 | 40.62807 | -121.18374 | 37950 ft | 495 kts | 339° |
| 2026-04-22 02:51 | 40.69343 | -121.21062 | 37960 ft | 495 kts | 339° |
| 2026-04-22 02:51 | 40.75915 | -121.23782 | 37957 ft | 495 kts | 339° |
| 2026-04-22 02:52 | 40.82490 | -121.26509 | 37950 ft | 495 kts | 339° |
| 2026-04-22 02:52 | 40.89067 | -121.29242 | 37938 ft | 495 kts | 339° |
| 2026-04-22 02:53 | 40.95641 | -121.31978 | 37940 ft | 495 kts | 339° |
| 2026-04-22 02:53 | 41.02220 | -121.34723 | 37944 ft | 496 kts | 339° |
| 2026-04-22 02:54 | 41.08794 | -121.37472 | 37960 ft | 496 kts | 339° |
| 2026-04-22 02:54 | 41.15390 | -121.40235 | 37953 ft | 497 kts | 339° |
| 2026-04-22 02:55 | 41.21987 | -121.43005 | 37951 ft | 497 kts | 339° |
| 2026-04-22 02:55 | 41.28582 | -121.45779 | 37959 ft | 497 kts | 339° |
| 2026-04-22 02:56 | 41.35130 | -121.48539 | 37980 ft | 497 kts | 339° |
| 2026-04-22 02:56 | 41.41726 | -121.51326 | 37992 ft | 497 kts | 339° |
| 2026-04-22 02:57 | 41.48316 | -121.54116 | 37956 ft | 497 kts | 339° |
| 2026-04-22 02:57 | 41.54902 | -121.56911 | 37954 ft | 497 kts | 339° |
| 2026-04-22 02:58 | 41.61491 | -121.59712 | 37958 ft | 497 kts | 339° |
| 2026-04-22 02:58 | 41.68080 | -121.62520 | 37933 ft | 496 kts | 339° |
| 2026-04-22 02:59 | 41.74621 | -121.65313 | 37929 ft | 496 kts | 339° |
| 2026-04-22 02:59 | 41.81193 | -121.68125 | 37923 ft | 495 kts | 339° |
| 2026-04-22 03:00 | 41.87750 | -121.70936 | 37889 ft | 494 kts | 340° |
| 2026-04-22 03:00 | 41.94314 | -121.73759 | 37914 ft | 494 kts | 340° |
| 2026-04-22 03:01 | 42.00865 | -121.76581 | 37908 ft | 495 kts | 340° |
| 2026-04-22 03:01 | 42.07428 | -121.79414 | 37898 ft | 495 kts | 340° |
| 2026-04-22 03:02 | 42.13990 | -121.82253 | 37902 ft | 495 kts | 340° |
| 2026-04-22 03:02 | 42.20557 | -121.85100 | 37911 ft | 496 kts | 340° |
| 2026-04-22 03:03 | 42.27130 | -121.87956 | 37893 ft | 496 kts | 339° |
| 2026-04-22 03:03 | 42.33702 | -121.90817 | 37901 ft | 496 kts | 340° |
| 2026-04-22 03:04 | 42.40271 | -121.93684 | 37903 ft | 496 kts | 340° |
| 2026-04-22 03:04 | 42.46804 | -121.96541 | 37902 ft | 496 kts | 340° |
| 2026-04-22 03:05 | 42.53375 | -121.99422 | 37917 ft | 496 kts | 340° |
| 2026-04-22 03:05 | 42.59940 | -122.02306 | 37921 ft | 496 kts | 340° |
| 2026-04-22 03:06 | 42.66501 | -122.05195 | 37935 ft | 496 kts | 340° |
| 2026-04-22 03:06 | 42.73066 | -122.08093 | 37927 ft | 496 kts | 340° |
| 2026-04-22 03:07 | 42.79623 | -122.10993 | 37923 ft | 495 kts | 340° |
| 2026-04-22 03:07 | 42.86182 | -122.13900 | 37921 ft | 495 kts | 340° |
| 2026-04-22 03:08 | 42.92695 | -122.16796 | 37928 ft | 495 kts | 340° |
| 2026-04-22 03:08 | 42.99221 | -122.19826 | 37939 ft | 495 kts | 339° |
| 2026-04-22 03:09 | 43.05734 | -122.22915 | 37953 ft | 496 kts | 339° |
| 2026-04-22 03:09 | 43.12258 | -122.26000 | 37944 ft | 496 kts | 339° |
| 2026-04-22 03:10 | 43.18793 | -122.29083 | 37944 ft | 496 kts | 339° |
| 2026-04-22 03:10 | 43.25320 | -122.32166 | 37951 ft | 497 kts | 339° |
| 2026-04-22 03:11 | 43.31856 | -122.35263 | 37949 ft | 497 kts | 339° |
| 2026-04-22 03:11 | 43.38318 | -122.38331 | 37834 ft | 482 kts | 339° |
| 2026-04-22 03:11 | 43.41467 | -122.39829 | 37429 ft | 476 kts | 340° |
| 2026-04-22 03:12 | 43.44593 | -122.41318 | 36921 ft | 474 kts | 340° |
| 2026-04-22 03:12 | 43.50801 | -122.44282 | 35867 ft | 471 kts | 340° |
| 2026-04-22 03:12 | 43.53886 | -122.45759 | 35398 ft | 468 kts | 340° |
| 2026-04-22 03:13 | 43.56956 | -122.47229 | 34943 ft | 466 kts | 340° |
| 2026-04-22 03:13 | 43.60011 | -122.48694 | 34528 ft | 462 kts | 340° |
| 2026-04-22 03:13 | 43.63038 | -122.50148 | 34125 ft | 459 kts | 340° |
| 2026-04-22 03:13 | 43.66048 | -122.51594 | 33662 ft | 457 kts | 340° |
| 2026-04-22 03:14 | 43.69011 | -122.53020 | 33072 ft | 457 kts | 340° |
| 2026-04-22 03:14 | 43.72026 | -122.54473 | 32422 ft | 459 kts | 341° |
| 2026-04-22 03:14 | 43.75049 | -122.55932 | 31783 ft | 462 kts | 341° |
| 2026-04-22 03:14 | 43.78096 | -122.57403 | 31190 ft | 464 kts | 342° |
| 2026-04-22 03:15 | 43.81154 | -122.58881 | 30632 ft | 465 kts | 343° |
| 2026-04-22 03:15 | 43.84217 | -122.60362 | 30106 ft | 466 kts | 343° |
| 2026-04-22 03:15 | 43.87276 | -122.61841 | 29581 ft | 465 kts | 343° |
| 2026-04-22 03:15 | 43.90314 | -122.63311 | 29245 ft | 459 kts | 343° |
| 2026-04-22 03:16 | 43.93303 | -122.64763 | 28892 ft | 452 kts | 343° |
| 2026-04-22 03:16 | 43.96280 | -122.66209 | 28298 ft | 454 kts | 343° |
| 2026-04-22 03:16 | 43.99254 | -122.67655 | 27858 ft | 451 kts | 342° |
| 2026-04-22 03:16 | 44.02201 | -122.69090 | 27536 ft | 446 kts | 342° |
| 2026-04-22 03:17 | 44.05111 | -122.70510 | 27245 ft | 440 kts | 342° |
| 2026-04-22 03:17 | 44.07946 | -122.71892 | 26912 ft | 435 kts | 342° |
| 2026-04-22 03:17 | 44.10791 | -122.73281 | 26581 ft | 431 kts | 342° |
| 2026-04-22 03:17 | 44.13609 | -122.74645 | 26251 ft | 424 kts | 344° |
| 2026-04-22 03:18 | 44.16475 | -122.75376 | 25855 ft | 413 kts | 5° |
| 2026-04-22 03:18 | 44.19296 | -122.75097 | 25418 ft | 405 kts | 9° |
| 2026-04-22 03:18 | 44.22102 | -122.74738 | 25032 ft | 403 kts | 8° |
| 2026-04-22 03:18 | 44.24848 | -122.74410 | 24555 ft | 391 kts | 7° |
| 2026-04-22 03:19 | 44.27540 | -122.74109 | 23902 ft | 385 kts | 6° |
| 2026-04-22 03:19 | 44.30198 | -122.73829 | 23206 ft | 380 kts | 5° |
| 2026-04-22 03:19 | 44.32815 | -122.73564 | 22461 ft | 377 kts | 5° |
| 2026-04-22 03:19 | 44.35438 | -122.73301 | 21939 ft | 378 kts | 6° |
| 2026-04-22 03:20 | 44.38052 | -122.73042 | 21542 ft | 375 kts | 5° |
| 2026-04-22 03:20 | 44.40613 | -122.72790 | 21157 ft | 372 kts | 5° |
| 2026-04-22 03:20 | 44.43189 | -122.72536 | 20772 ft | 370 kts | 5° |
| 2026-04-22 03:20 | 44.45753 | -122.72283 | 20376 ft | 367 kts | 5° |
| 2026-04-22 03:21 | 44.48290 | -122.72031 | 20001 ft | 364 kts | 5° |
| 2026-04-22 03:21 | 44.50807 | -122.71781 | 19617 ft | 361 kts | 5° |
| 2026-04-22 03:21 | 44.53306 | -122.71533 | 19242 ft | 358 kts | 5° |
| 2026-04-22 03:21 | 44.55786 | -122.71286 | 18864 ft | 356 kts | 4° |
| 2026-04-22 03:22 | 44.58245 | -122.71041 | 18493 ft | 353 kts | 4° |
| 2026-04-22 03:22 | 44.60680 | -122.70798 | 18131 ft | 349 kts | 4° |
| 2026-04-22 03:22 | 44.63090 | -122.70556 | 17718 ft | 345 kts | 4° |
| 2026-04-22 03:22 | 44.65472 | -122.70317 | 17340 ft | 341 kts | 4° |
| 2026-04-22 03:23 | 44.67823 | -122.70079 | 16971 ft | 337 kts | 4° |
| 2026-04-22 03:23 | 44.70149 | -122.69846 | 16621 ft | 333 kts | 4° |
| 2026-04-22 03:23 | 44.72446 | -122.69616 | 16256 ft | 329 kts | 4° |
| 2026-04-22 03:23 | 44.74715 | -122.69387 | 15914 ft | 326 kts | 3° |
| 2026-04-22 03:24 | 44.76963 | -122.69161 | 15565 ft | 322 kts | 3° |
| 2026-04-22 03:24 | 44.79188 | -122.68936 | 15218 ft | 319 kts | 3° |
| 2026-04-22 03:24 | 44.81388 | -122.68714 | 14886 ft | 315 kts | 3° |
| 2026-04-22 03:24 | 44.83541 | -122.68498 | 14554 ft | 312 kts | 2° |
| 2026-04-22 03:25 | 44.85701 | -122.68280 | 14219 ft | 309 kts | 2° |
| 2026-04-22 03:25 | 44.87838 | -122.68065 | 13889 ft | 306 kts | 2° |
| 2026-04-22 03:25 | 44.89956 | -122.67852 | 13533 ft | 303 kts | 2° |
| 2026-04-22 03:25 | 44.92048 | -122.67642 | 13183 ft | 300 kts | 2° |
| 2026-04-22 03:26 | 44.94117 | -122.67433 | 12847 ft | 296 kts | 2° |
| 2026-04-22 03:26 | 44.96149 | -122.67227 | 12647 ft | 289 kts | 2° |
| 2026-04-22 03:26 | 44.98155 | -122.67024 | 12343 ft | 290 kts | 2° |
| 2026-04-22 03:26 | 45.00177 | -122.66766 | 12031 ft | 293 kts | 9° |
| 2026-04-22 03:27 | 45.02050 | -122.65667 | 11844 ft | 289 kts | 30° |
| 2026-04-22 03:27 | 45.03649 | -122.64082 | 11490 ft | 272 kts | 34° |
| 2026-04-22 03:27 | 45.05120 | -122.62543 | 11110 ft | 256 kts | 34° |
| 2026-04-22 03:27 | 45.06517 | -122.61054 | 10541 ft | 249 kts | 34° |
| 2026-04-22 03:28 | 45.07862 | -122.59602 | 9977 ft | 243 kts | 34° |
| 2026-04-22 03:28 | 45.09196 | -122.58149 | 9321 ft | 240 kts | 35° |
| 2026-04-22 03:28 | 45.10506 | -122.56738 | 8697 ft | 235 kts | 34° |
| 2026-04-22 03:28 | 45.11807 | -122.55339 | 8006 ft | 234 kts | 34° |
| 2026-04-22 03:29 | 45.13095 | -122.53954 | 7374 ft | 231 kts | 34° |
| 2026-04-22 03:29 | 45.14395 | -122.52558 | 7203 ft | 238 kts | 34° |
| 2026-04-22 03:29 | 45.15714 | -122.51142 | 6996 ft | 236 kts | 34° |
| 2026-04-22 03:29 | 45.17016 | -122.49741 | 6671 ft | 235 kts | 34° |
| 2026-04-22 03:30 | 45.18301 | -122.48354 | 6498 ft | 226 kts | 34° |
| 2026-04-22 03:30 | 45.19529 | -122.47022 | 6508 ft | 222 kts | 34° |
| 2026-04-22 03:30 | 45.20780 | -122.45646 | 6526 ft | 232 kts | 34° |
| 2026-04-22 03:30 | 45.22076 | -122.44214 | 6412 ft | 240 kts | 34° |
| 2026-04-22 03:31 | 45.23378 | -122.42768 | 5950 ft | 236 kts | 34° |
| 2026-04-22 03:31 | 45.24642 | -122.41363 | 5465 ft | 231 kts | 35° |
| 2026-04-22 03:31 | 45.25900 | -122.39972 | 4998 ft | 227 kts | 34° |
| 2026-04-22 03:31 | 45.27155 | -122.38580 | 4528 ft | 226 kts | 35° |
| 2026-04-22 03:32 | 45.28409 | -122.37202 | 4126 ft | 235 kts | 34° |
| 2026-04-22 03:32 | 45.29682 | -122.35813 | 4004 ft | 226 kts | 34° |
| 2026-04-22 03:32 | 45.30928 | -122.34453 | 3997 ft | 226 kts | 34° |
| 2026-04-22 03:32 | 45.32178 | -122.33090 | 3999 ft | 226 kts | 34° |
| 2026-04-22 03:33 | 45.33428 | -122.31732 | 4009 ft | 224 kts | 32° |
| 2026-04-22 03:33 | 45.34818 | -122.30894 | 3999 ft | 213 kts | 6° |
| 2026-04-22 03:33 | 45.36229 | -122.30610 | 3914 ft | 198 kts | 4° |
| 2026-04-22 03:33 | 45.37571 | -122.30478 | 3566 ft | 189 kts | 346° |
| 2026-04-22 03:34 | 45.38752 | -122.31191 | 3173 ft | 186 kts | 326° |
| 2026-04-22 03:34 | 45.39823 | -122.32146 | 3027 ft | 173 kts | 324° |
| 2026-04-22 03:34 | 45.40805 | -122.33053 | 3006 ft | 165 kts | 325° |
| 2026-04-22 03:34 | 45.41754 | -122.33945 | 3000 ft | 163 kts | 324° |
| 2026-04-22 03:35 | 45.42705 | -122.34842 | 3009 ft | 165 kts | 324° |
| 2026-04-22 03:35 | 45.43671 | -122.35756 | 3007 ft | 168 kts | 324° |
| 2026-04-22 03:35 | 45.44642 | -122.36669 | 3008 ft | 168 kts | 324° |
| 2026-04-22 03:35 | 45.45617 | -122.37585 | 3015 ft | 168 kts | 324° |
| 2026-04-22 03:36 | 45.46587 | -122.38493 | 3000 ft | 168 kts | 324° |
| 2026-04-22 03:36 | 45.47560 | -122.39412 | 3000 ft | 167 kts | 324° |
| 2026-04-22 03:36 | 45.48526 | -122.40329 | 2993 ft | 166 kts | 324° |
| 2026-04-22 03:36 | 45.49480 | -122.41233 | 2996 ft | 164 kts | 324° |
| 2026-04-22 03:37 | 45.50104 | -122.41827 | 2995 ft | 163 kts | 324° |
| 2026-04-22 03:37 | 45.51024 | -122.42697 | 2966 ft | 154 kts | 324° |
| 2026-04-22 03:37 | 45.51897 | -122.43539 | 2750 ft | 150 kts | 318° |
| 2026-04-22 03:37 | 45.52501 | -122.44719 | 2332 ft | 146 kts | 300° |
| 2026-04-22 03:38 | 45.53052 | -122.45906 | 2091 ft | 142 kts | 304° |
| 2026-04-22 03:38 | 45.53610 | -122.47114 | 1880 ft | 146 kts | 301° |
| 2026-04-22 03:38 | 45.54114 | -122.48335 | 1669 ft | 139 kts | 298° |
| 2026-04-22 03:38 | 45.54583 | -122.49521 | 1449 ft | 136 kts | 299° |
| 2026-04-22 03:39 | 45.55045 | -122.50700 | 1281 ft | 137 kts | 298° |
| 2026-04-22 03:39 | 45.55512 | -122.51895 | 1088 ft | 139 kts | 298° |
| 2026-04-22 03:39 | 45.55984 | -122.53102 | 891 ft | 140 kts | 298° |
| 2026-04-22 03:39 | 45.56452 | -122.54301 | 696 ft | 140 kts | 298° |
| 2026-04-22 03:40 | 45.56928 | -122.55518 | 518 ft | 141 kts | 299° |
| 2026-04-22 03:40 | 45.57409 | -122.56748 | 322 ft | 142 kts | 299° |
| 2026-04-22 03:40 | 45.57885 | -122.57969 | 138 ft | 139 kts | 299° |
| 2026-04-22 03:40 | 45.58343 | -122.59129 | 34 ft | 124 kts | 299° |
| 2026-04-22 03:41 | 45.58672 | -122.59981 | 33 ft | 66 kts | 299° |
| 2026-04-22 03:41 | 45.58810 | -122.60335 | 31 ft | 31 kts | 299° |
| 2026-04-22 03:41 | 45.58852 | -122.60591 | 31 ft | 28 kts | 235° |
| 2026-04-22 03:41 | 45.58730 | -122.60769 | 32 ft | 24 kts | 224° |
| 2026-04-22 03:42 | 45.58637 | -122.60891 | 32 ft | 13 kts | 204° |
| 2026-04-22 03:42 | 45.58556 | -122.60867 | 32 ft | 6 kts | 185° |
| 2026-04-22 03:42 | 45.58519 | -122.60905 | 32 ft | 7 kts | 224° |
| 2026-04-22 03:42 | 45.58481 | -122.60957 | 32 ft | 8 kts | 224° |
| 2026-04-22 03:43 | 45.58439 | -122.61017 | 32 ft | 9 kts | 224° |
| 2026-04-22 03:43 | 45.58392 | -122.61083 | 32 ft | 10 kts | 225° |
| 2026-04-22 03:43 | 45.58344 | -122.61151 | 31 ft | 9 kts | 225° |
| 2026-04-22 03:43 | 45.58303 | -122.61210 | 32 ft | 3 kts | 225° |
| 2026-04-22 03:44 | 45.58287 | -122.61232 | 32 ft | 4 kts | 225° |
| 2026-04-22 03:44 | 45.58264 | -122.61260 | 32 ft | 5 kts | 213° |
| 2026-04-22 03:44 | 45.58228 | -122.61266 | 32 ft | 5 kts | 164° |
| 2026-04-22 03:44 | 45.58198 | -122.61230 | 31 ft | 6 kts | 137° |
| 2026-04-22 03:45 | 45.58164 | -122.61184 | 32 ft | 7 kts | 135° |
| 2026-04-22 03:45 | 45.58125 | -122.61130 | 31 ft | 8 kts | 135° |
| 2026-04-22 03:45 | 45.58083 | -122.61069 | 32 ft | 9 kts | 134° |
| 2026-04-22 03:45 | 45.58036 | -122.61002 | 32 ft | 10 kts | 135° |
| 2026-04-22 03:46 | 45.57986 | -122.60929 | 32 ft | 11 kts | 131° |
| 2026-04-22 03:46 | 45.57955 | -122.60840 | 33 ft | 7 kts | 112° |
| 2026-04-22 03:46 | 45.57909 | -122.60816 | 31 ft | 8 kts | 179° |
| 2026-04-22 03:46 | 45.57882 | -122.60816 | 33 ft | 0 kts | 180° |